This is the latest recevied weather packets stored in our database for station/object DELTON-WX. If no packets are shown the sender has not sent any weather packets the latest 1 day(s).
| Time | Temp. | Humidity | Pressure | Rain* | Wind** | Luminosity | Snow |
|---|---|---|---|---|---|---|---|
| 1777978886 | 8.89° C | 68% | 969.9 hPa | 0 mm | 3.58 m/s, 261° | - | - |
| 1777977948 | 9.44° C | 66% | 968.8 hPa | 0 mm | 4.47 m/s, 263° | - | - |
| 1777977066 | 9.44° C | 66% | 968.6 hPa | 0 mm | 4.47 m/s, 264° | - | - |
| 1777976147 | 10° C | 66% | 968.6 hPa | 0 mm | 4.47 m/s, 266° | - | - |
| 1777975285 | 10° C | 66% | 968.6 hPa | 0 mm | 4.47 m/s, 269° | - | - |
| 1777974347 | 10° C | 77% | 968.7 hPa | 0 mm | 2.68 m/s, 260° | - | - |
| 1777973470 | 10.56° C | 78% | 968.6 hPa | 0 mm | 2.68 m/s, 256° | - | - |
| 1777972548 | 10.56° C | 78% | 968.5 hPa | 0 mm | 4.92 m/s, 266° | - | - |
| 1777971688 | 10° C | 78% | 968.5 hPa | 0 mm | 3.58 m/s, 257° | - | - |
| 1777970745 | 10° C | 74% | 968.6 hPa | 0 mm | 4.92 m/s, 278° | - | - |
| 1777969866 | 10.56° C | 72% | 967.8 hPa | 0 mm | 4.92 m/s, 275° | - | - |
| 1777968947 | 10.56° C | 72% | 967.8 hPa | 0 mm | 4.92 m/s, 268° | - | - |
| 1777968079 | 11.11° C | 76% | 968.3 hPa | 0 mm | 5.36 m/s, 261° | - | - |
| 1777967148 | 11.67° C | 82% | 967.7 hPa | 0 mm | 5.36 m/s, 253° | - | - |
| 1777966268 | 11.67° C | 82% | 967.7 hPa | 0 mm | 4.47 m/s, 237° | - | - |
| 1777965348 | 12.22° C | 82% | 967.7 hPa | 0 mm | 5.36 m/s, 241° | - | - |
| 1777964481 | 12.78° C | 82% | 967.7 hPa | 0 mm | 4.92 m/s, 236° | - | - |
| 1777963547 | 12.78° C | 82% | 968.2 hPa | 0 mm | 4.92 m/s, 262° | - | - |
| 1777962664 | 13.33° C | 82% | 967.6 hPa | 0 mm | 5.36 m/s, 259° | - | - |
| 1777961749 | 13.33° C | 82% | 967.6 hPa | 0 mm | 5.81 m/s, 248° | - | - |
* Rain latest hour (hover to see other rain measurements)
** Current wind speed in m/s (hover to see current wind gust speed)